Westerville, Ohio
Current Conditions -  °F | °C
As of 2:53 AM on Friday 19 Dec 2014 (Local Time) from KOSU Reporting Station
Overcast Overcast  
Wind Chill: 23°   Ceiling: 1900
Heat Index: 28°   Visibility: 9mi
Dew Point: 22°   Wind: 5mph
Humidity: 78%   Direction: 280°W
Pressure: 30.21"   Gusts: NA
Location:  40.13°N, 82.93°W
Report Text: KOSU 190753Z AUTO 28004KT 9SM OVC019 M02/M06 A3021 RMK AO2 SLP241 T10221056
Loading
Personal Weather Stations






























Interactive Weather Map New forecast layout! Learn more

10-Day Weather Forecast

Advertisements
Track Severe Weather on mobile